createdAt,value
2018-02-08T00:00:34.085Z,33.73
2018-02-08T00:03:01.527Z,36.03
2018-02-08T00:05:28.939Z,35.13
2018-02-08T00:07:56.366Z,33.43
2018-02-08T00:10:24.563Z,35.33
2018-02-08T00:12:51.979Z,36.30
2018-02-08T00:15:19.408Z,35.80
2018-02-08T00:17:47.648Z,36.33
2018-02-08T00:20:16.052Z,37.43
2018-02-08T00:22:45.446Z,38.00
2018-02-08T00:25:12.871Z,38.60
2018-02-08T00:27:41.073Z,36.87
2018-02-08T00:30:08.511Z,37.00
2018-02-08T00:32:35.940Z,37.60
2018-02-08T00:35:03.375Z,36.67
2018-02-08T00:37:30.827Z,37.17
2018-02-08T00:39:58.247Z,36.40
2018-02-08T00:42:25.698Z,37.93
2018-02-08T00:44:53.179Z,38.37
2018-02-08T00:47:20.610Z,38.10
2018-02-08T00:49:48.040Z,37.50
2018-02-08T00:52:15.481Z,38.10
2018-02-08T00:54:42.904Z,39.97
2018-02-08T00:57:10.387Z,38.30
2018-02-08T00:59:37.819Z,36.83
2018-02-08T01:02:05.252Z,38.17
2018-02-08T01:04:32.689Z,39.30
2018-02-08T01:07:00.148Z,38.83
2018-02-08T01:09:27.583Z,38.77
2018-02-08T01:11:55.024Z,39.37
2018-02-08T01:14:22.443Z,39.10
2018-02-08T01:16:49.871Z,41.93
2018-02-08T01:19:17.327Z,41.23
2018-02-08T01:21:44.747Z,37.73
2018-02-08T01:24:12.944Z,40.17
2018-02-08T01:26:40.371Z,39.00
2018-02-08T01:29:07.815Z,38.50
2018-02-08T01:31:35.263Z,38.07
2018-02-08T01:34:02.704Z,39.30
2018-02-08T01:36:30.132Z,38.50
2018-02-08T01:38:57.627Z,37.80
2018-02-08T01:41:25.072Z,38.67
2018-02-08T01:43:52.516Z,38.33
2018-02-08T01:46:19.940Z,38.87
2018-02-08T01:48:47.364Z,39.27
2018-02-08T01:51:14.803Z,41.23
2018-02-08T01:53:42.252Z,41.57
2018-02-08T01:56:09.681Z,40.60
2018-02-08T01:58:37.102Z,40.67
2018-02-08T02:01:04.540Z,41.10
2018-02-08T02:03:31.983Z,40.03
2018-02-08T02:05:59.431Z,42.53
2018-02-08T02:08:26.884Z,39.77
2018-02-08T02:10:54.335Z,37.97
2018-02-08T02:13:21.767Z,39.80
2018-02-08T02:15:49.196Z,40.33
2018-02-08T02:18:16.639Z,42.27
2018-02-08T02:20:44.069Z,40.90
2018-02-08T02:23:11.510Z,39.07
2018-02-08T02:25:38.931Z,40.10
2018-02-08T02:28:07.131Z,40.50
2018-02-08T02:30:34.608Z,40.87
2018-02-08T02:33:02.044Z,42.67
2018-02-08T02:35:29.499Z,42.00
2018-02-08T02:37:56.947Z,41.67
2018-02-08T02:40:24.375Z,42.57
2018-02-08T02:42:51.805Z,40.60
2018-02-08T02:45:19.248Z,43.60
2018-02-08T02:47:46.795Z,43.60
2018-02-08T02:50:14.236Z,42.43
2018-02-08T02:52:41.664Z,43.53
2018-02-08T02:55:09.091Z,41.03
2018-02-08T02:57:36.567Z,43.67
2018-02-08T03:00:04.002Z,44.43
2018-02-08T03:02:31.435Z,45.60
2018-02-08T03:04:58.863Z,42.20
2018-02-08T03:07:26.291Z,43.77
2018-02-08T03:09:53.776Z,44.43
2018-02-08T03:12:21.211Z,45.33
2018-02-08T03:14:48.652Z,43.63
2018-02-08T03:17:16.091Z,42.17
2018-02-08T03:19:43.543Z,43.80
2018-02-08T03:22:10.984Z,44.07
2018-02-08T03:24:38.420Z,43.00
2018-02-08T03:27:05.956Z,42.43
2018-02-08T03:29:33.403Z,43.70
2018-02-08T03:32:00.828Z,40.00
2018-02-08T03:34:28.265Z,42.70
2018-02-08T03:36:55.695Z,41.93
2018-02-08T03:39:23.119Z,40.93
2018-02-08T03:41:50.579Z,44.47
2018-02-08T03:44:18.016Z,45.67
2018-02-08T03:46:45.871Z,45.13
2018-02-08T03:49:13.325Z,46.57
2018-02-08T03:51:40.797Z,44.90
2018-02-08T03:54:08.191Z,46.00
2018-02-08T03:56:35.619Z,45.30
2018-02-08T03:59:03.064Z,47.47
2018-02-08T04:01:30.518Z,42.93
2018-02-08T04:03:57.977Z,45.77
2018-02-08T04:06:25.415Z,43.10
2018-02-08T04:08:52.847Z,49.00
2018-02-08T04:11:20.271Z,45.87
2018-02-08T04:13:47.727Z,48.73
2018-02-08T04:16:15.167Z,46.20
2018-02-08T04:18:42.608Z,44.90
2018-02-08T04:21:10.049Z,47.00
2018-02-08T04:23:38.238Z,49.40
2018-02-08T04:26:05.675Z,47.33
2018-02-08T04:28:33.139Z,47.33
2018-02-08T04:31:00.560Z,46.50
2018-02-08T04:33:27.991Z,46.83
2018-02-08T04:35:55.427Z,46.67
2018-02-08T04:38:34.916Z,45.77
2018-02-08T04:41:15.056Z,45.47
2018-02-08T04:43:55.193Z,44.77
2018-02-08T04:46:35.344Z,47.83
2018-02-08T04:49:02.807Z,47.53
2018-02-08T04:51:30.240Z,48.20
2018-02-08T04:53:57.683Z,47.77
2018-02-08T04:56:25.140Z,44.13
2018-02-08T04:58:52.580Z,45.63
2018-02-08T05:01:20.017Z,48.30
2018-02-08T05:03:47.448Z,47.83
2018-02-08T05:06:14.882Z,49.90
2018-02-08T05:08:42.320Z,47.70
2018-02-08T05:11:09.775Z,47.97
2018-02-08T05:13:37.223Z,46.60
2018-02-08T05:16:04.659Z,47.63
2018-02-08T05:18:32.087Z,50.60
2018-02-08T05:20:59.532Z,48.80
2018-02-08T05:23:26.976Z,50.13
2018-02-08T05:25:54.420Z,49.23
2018-02-08T05:28:21.858Z,51.43
2018-02-08T05:30:49.295Z,52.03
2018-02-08T05:33:16.736Z,48.73
2018-02-08T05:35:44.176Z,51.87
2018-02-08T05:38:11.615Z,54.00
2018-02-08T05:40:39.059Z,53.37
2018-02-08T05:43:06.498Z,52.87
2018-02-08T05:45:33.927Z,50.93
2018-02-08T05:48:02.148Z,53.37
2018-02-08T05:50:29.575Z,53.07
2018-02-08T05:52:57.024Z,52.13
2018-02-08T05:55:24.521Z,54.00
2018-02-08T05:57:51.980Z,53.87
2018-02-08T06:00:19.956Z,52.97
2018-02-08T06:02:47.396Z,52.33
2018-02-08T06:05:14.906Z,56.03
2018-02-08T06:07:42.299Z,52.90
2018-02-08T06:10:09.736Z,52.27
2018-02-08T06:12:37.171Z,66.20
2018-02-08T06:15:04.612Z,49.57
2018-02-08T06:17:32.052Z,49.77
2018-02-08T06:19:59.511Z,49.73
2018-02-08T06:22:26.940Z,52.17
2018-02-08T06:24:54.370Z,49.13
2018-02-08T06:27:21.883Z,49.77
2018-02-08T06:29:49.315Z,48.80
2018-02-08T06:32:16.772Z,49.83
2018-02-08T06:34:44.943Z,49.17
2018-02-08T06:37:12.399Z,47.67
2018-02-08T06:39:39.830Z,47.83
2018-02-08T06:42:07.269Z,53.33
2018-02-08T06:44:34.688Z,50.80
2018-02-08T06:47:02.123Z,53.93
2018-02-08T06:49:29.560Z,52.67
2018-02-08T06:51:57.787Z,54.50
2018-02-08T06:54:25.214Z,52.37
2018-02-08T06:56:52.694Z,51.83
2018-02-08T06:59:20.875Z,54.10
2018-02-08T07:01:48.315Z,52.70
2018-02-08T07:04:15.780Z,53.57
2018-02-08T07:06:43.207Z,52.53
2018-02-08T07:09:10.655Z,54.87
2018-02-08T07:11:38.128Z,51.93
2018-02-08T07:14:05.559Z,52.67
2018-02-08T07:16:33.027Z,52.20
2018-02-08T07:19:00.467Z,54.97
2018-02-08T07:21:27.907Z,53.73
2018-02-08T07:23:55.352Z,56.27
2018-02-08T07:26:22.779Z,54.33
2018-02-08T07:28:50.220Z,52.07
2018-02-08T07:31:17.666Z,53.30
2018-02-08T07:33:45.104Z,58.13
2018-02-08T07:36:12.555Z,54.10
2018-02-08T07:38:39.997Z,56.93
2018-02-08T07:41:07.425Z,51.57
2018-02-08T07:43:34.852Z,50.83
2018-02-08T07:46:02.296Z,51.93
2018-02-08T07:48:29.749Z,46.17
2018-02-08T07:50:57.184Z,51.13
2018-02-08T07:53:24.623Z,53.53
2018-02-08T07:55:52.058Z,53.93
2018-02-08T07:58:19.508Z,55.27
2018-02-08T08:00:46.926Z,50.47
2018-02-08T08:03:14.373Z,50.27
2018-02-08T08:05:41.796Z,51.10
2018-02-08T08:08:09.265Z,53.00
2018-02-08T08:10:36.715Z,48.83
2018-02-08T08:13:04.146Z,49.63
2018-02-08T08:15:31.580Z,52.93
2018-02-08T08:17:59.020Z,45.57
2018-02-08T08:20:26.468Z,48.47
2018-02-08T08:22:53.913Z,50.97
2018-02-08T08:25:21.481Z,54.37
2018-02-08T08:27:48.948Z,50.17
2018-02-08T08:30:16.380Z,52.30
2018-02-08T08:32:43.806Z,51.97
2018-02-08T08:35:11.244Z,53.10
2018-02-08T08:37:38.678Z,51.73
2018-02-08T08:40:06.136Z,50.40
2018-02-08T08:42:33.571Z,52.50
2018-02-08T08:45:00.991Z,49.60
2018-02-08T08:47:28.441Z,52.03
2018-02-08T08:49:55.855Z,50.20
2018-02-08T08:52:23.280Z,49.60
2018-02-08T08:54:51.496Z,49.90
2018-02-08T08:57:18.939Z,49.40
2018-02-08T08:59:47.241Z,50.60
2018-02-08T09:02:15.436Z,49.03
2018-02-08T09:04:42.882Z,48.20
2018-02-08T09:07:10.291Z,49.47
2018-02-08T09:09:37.732Z,49.53
2018-02-08T09:12:05.172Z,50.40
2018-02-08T09:14:32.607Z,47.10
2018-02-08T09:17:00.791Z,46.17
2018-02-08T09:19:28.239Z,47.47
2018-02-08T09:21:55.695Z,47.40
2018-02-08T09:24:23.140Z,48.73
2018-02-08T09:26:50.567Z,47.97
2018-02-08T09:29:17.995Z,48.47
2018-02-08T09:31:45.444Z,47.80
2018-02-08T09:34:12.878Z,49.80
2018-02-08T09:36:40.295Z,49.50
2018-02-08T09:39:08.517Z,52.13
2018-02-08T09:41:35.935Z,51.17
2018-02-08T09:44:03.380Z,54.27
2018-02-08T09:46:30.836Z,54.13
2018-02-08T09:48:58.227Z,53.03
2018-02-08T09:51:25.655Z,50.63
2018-02-08T09:53:53.855Z,51.83
2018-02-08T09:56:21.283Z,52.53
2018-02-08T09:58:48.718Z,49.17
2018-02-08T10:01:16.185Z,50.07
2018-02-08T10:03:43.605Z,52.50
2018-02-08T10:06:11.036Z,52.73
2018-02-08T10:08:39.215Z,51.60
2018-02-08T10:11:06.663Z,52.83
2018-02-08T10:13:34.096Z,54.13
2018-02-08T10:16:01.528Z,53.13
2018-02-08T10:18:28.964Z,53.50
2018-02-08T10:20:56.400Z,53.10
2018-02-08T10:23:24.596Z,50.07
2018-02-08T10:25:52.027Z,51.50
2018-02-08T10:28:19.452Z,52.50
2018-02-08T10:30:46.890Z,54.40
2018-02-08T10:33:14.312Z,51.50
2018-02-08T10:35:42.529Z,52.00
2018-02-08T10:38:09.947Z,52.07
2018-02-08T10:40:37.387Z,49.60
2018-02-08T10:43:04.808Z,49.27
2018-02-08T10:45:32.999Z,50.27
2018-02-08T10:48:00.419Z,50.93
2018-02-08T10:50:27.867Z,51.27
2018-02-08T10:52:55.348Z,50.67
2018-02-08T10:55:22.804Z,48.17
2018-02-08T10:57:50.234Z,50.40
2018-02-08T11:00:17.661Z,53.47
2018-02-08T11:02:45.103Z,52.57
2018-02-08T11:05:12.532Z,54.53
2018-02-08T11:07:39.958Z,51.10
2018-02-08T11:10:07.416Z,50.80
2018-02-08T11:12:34.835Z,50.93
2018-02-08T11:15:02.280Z,50.20
2018-02-08T11:17:29.703Z,48.87
2018-02-08T11:19:57.906Z,47.53
2018-02-08T11:22:25.323Z,47.90
2018-02-08T11:24:52.740Z,47.33
2018-02-08T11:27:20.955Z,46.87
2018-02-08T11:29:48.359Z,45.47
2018-02-08T11:32:15.803Z,47.80
2018-02-08T11:34:43.222Z,45.43
2018-02-08T11:37:11.416Z,46.60
2018-02-08T11:39:38.847Z,49.97
2018-02-08T11:42:06.324Z,48.50
2018-02-08T11:44:33.770Z,46.27
2018-02-08T11:47:01.208Z,48.60
2018-02-08T11:49:28.636Z,50.13
2018-02-08T11:51:56.116Z,45.43
2018-02-08T11:54:23.492Z,46.03
2018-02-08T11:56:50.947Z,47.63
2018-02-08T11:59:18.371Z,45.10
2018-02-08T12:01:45.791Z,47.73
2018-02-08T12:04:13.984Z,45.93
2018-02-08T12:06:42.198Z,45.00
2018-02-08T12:09:11.136Z,45.30
2018-02-08T12:11:38.556Z,45.33
2018-02-08T12:14:05.980Z,45.63
2018-02-08T12:16:34.191Z,45.60
2018-02-08T12:19:01.620Z,43.13
2018-02-08T12:21:29.033Z,46.23
2018-02-08T12:23:56.463Z,47.30
2018-02-08T12:26:24.657Z,45.57
2018-02-08T12:28:52.116Z,46.00
2018-02-08T12:31:19.552Z,45.50
2018-02-08T12:33:46.982Z,46.00
2018-02-08T12:36:15.204Z,44.30
2018-02-08T12:38:43.394Z,46.40
2018-02-08T12:41:10.837Z,46.87
2018-02-08T12:43:38.260Z,46.17
2018-02-08T12:46:05.721Z,47.27
2018-02-08T12:48:33.135Z,45.47
2018-02-08T12:51:00.556Z,47.83
2018-02-08T12:53:27.993Z,47.13
2018-02-08T12:55:56.915Z,49.40
2018-02-08T12:58:24.374Z,47.93
2018-02-08T13:00:51.815Z,47.27
2018-02-08T13:03:19.236Z,46.43
2018-02-08T13:05:46.659Z,46.87
2018-02-08T13:08:14.851Z,47.93
2018-02-08T13:10:42.267Z,47.73
2018-02-08T13:13:09.696Z,47.33
2018-02-08T13:15:37.887Z,45.70
2018-02-08T13:18:05.307Z,46.37
2018-02-08T13:20:32.739Z,46.17
2018-02-08T13:23:00.935Z,48.87
2018-02-08T13:25:28.377Z,47.57
2018-02-08T13:27:55.787Z,46.57
2018-02-08T13:30:23.244Z,46.47
2018-02-08T13:32:50.672Z,46.40
2018-02-08T13:35:18.114Z,46.30
2018-02-08T13:37:46.308Z,47.53
2018-02-08T13:40:34.572Z,47.10
2018-02-08T13:43:02.001Z,47.50
2018-02-08T13:45:33.883Z,47.90
2018-02-08T13:48:12.876Z,47.13
2018-02-08T13:51:00.956Z,48.70
2018-02-08T13:53:33.959Z,47.87
2018-02-08T13:56:02.704Z,49.00
2018-02-08T13:58:35.950Z,48.10
2018-02-08T14:01:05.951Z,48.43
2018-02-08T14:03:33.367Z,46.97
2018-02-08T14:06:01.564Z,46.07
2018-02-08T14:08:28.993Z,46.57
2018-02-08T14:10:56.423Z,45.30
2018-02-08T14:13:23.856Z,46.17
2018-02-08T14:15:52.057Z,45.63
2018-02-08T14:18:19.491Z,47.63
2018-02-08T14:20:46.924Z,44.93
2018-02-08T14:23:14.343Z,44.70
2018-02-08T14:25:42.546Z,46.97
2018-02-08T14:28:09.966Z,45.07
2018-02-08T14:30:37.383Z,43.73
2018-02-08T14:33:05.585Z,45.13
2018-02-08T14:35:33.016Z,45.53
2018-02-08T14:38:00.448Z,44.97
2018-02-08T14:40:27.899Z,45.63
2018-02-08T14:42:55.320Z,45.47
2018-02-08T14:45:22.757Z,45.80
2018-02-08T14:47:50.183Z,47.03
2018-02-08T14:50:18.395Z,47.27
2018-02-08T14:52:45.827Z,48.97
2018-02-08T14:55:13.264Z,47.20
2018-02-08T14:57:40.694Z,45.83
2018-02-08T15:00:08.123Z,47.57
2018-02-08T15:02:35.568Z,47.80
2018-02-08T15:05:03.820Z,49.73
2018-02-08T15:07:31.207Z,49.37
2018-02-08T15:09:58.643Z,46.70
2018-02-08T15:12:26.091Z,48.37
2018-02-08T15:14:53.522Z,48.93
2018-02-08T15:17:20.950Z,47.80
2018-02-08T15:19:48.380Z,44.83
2018-02-08T15:22:15.800Z,44.63
2018-02-08T15:24:43.995Z,45.20
2018-02-08T15:27:11.420Z,46.07
2018-02-08T15:29:39.608Z,47.77
2018-02-08T15:32:07.044Z,46.37
2018-02-08T15:34:34.468Z,48.37
2018-02-08T15:37:01.905Z,50.00
2018-02-08T15:39:30.094Z,46.53
2018-02-08T15:41:57.518Z,45.20
2018-02-08T15:44:24.960Z,44.90
2018-02-08T15:46:52.392Z,48.23
2018-02-08T15:49:19.820Z,47.33
2018-02-08T15:51:47.244Z,49.20
2018-02-08T15:54:15.460Z,46.63
2018-02-08T15:56:42.888Z,49.47
2018-02-08T15:59:10.320Z,47.63
2018-02-08T16:01:37.740Z,48.30
2018-02-08T16:04:05.931Z,47.77
2018-02-08T16:06:33.365Z,47.27
2018-02-08T16:09:00.801Z,47.77
2018-02-08T16:11:28.219Z,49.60
2018-02-08T16:13:56.417Z,47.83
2018-02-08T16:16:23.855Z,48.10
2018-02-08T16:18:51.275Z,47.87
2018-02-08T16:21:18.701Z,47.57
2018-02-08T16:23:46.916Z,48.13
2018-02-08T16:26:14.331Z,47.23
2018-02-08T16:28:41.768Z,46.97
2018-02-08T16:31:09.183Z,48.23
2018-02-08T16:33:37.387Z,46.43
2018-02-08T16:36:04.841Z,47.90
2018-02-08T16:38:32.260Z,46.87
2018-02-08T16:40:59.684Z,47.40
2018-02-08T16:43:27.123Z,48.50
2018-02-08T16:45:54.554Z,48.97
2018-02-08T16:48:22.750Z,47.33
2018-02-08T16:50:50.175Z,46.87
2018-02-08T16:53:17.599Z,48.73
2018-02-08T16:55:45.792Z,46.33
2018-02-08T16:58:13.219Z,46.83
2018-02-08T17:00:40.652Z,48.77
2018-02-08T17:03:08.091Z,47.30
2018-02-08T17:05:36.292Z,47.87
2018-02-08T17:08:03.716Z,47.83
2018-02-08T17:10:31.139Z,46.50
2018-02-08T17:12:58.579Z,48.87
2018-02-08T17:15:26.019Z,46.60
2018-02-08T17:17:53.468Z,46.63
2018-02-08T17:20:20.895Z,48.80
2018-02-08T17:22:48.344Z,47.33
2018-02-08T17:25:15.788Z,46.20
2018-02-08T17:27:43.207Z,47.30
2018-02-08T17:30:11.408Z,48.53
2018-02-08T17:32:38.827Z,49.17
2018-02-08T17:35:06.275Z,49.33
2018-02-08T17:37:33.703Z,47.57
2018-02-08T17:40:01.191Z,49.60
2018-02-08T17:42:29.319Z,49.77
2018-02-08T17:44:56.796Z,49.43
2018-02-08T17:47:24.210Z,48.70
2018-02-08T17:49:51.643Z,51.20
2018-02-08T17:52:19.063Z,50.70
2018-02-08T17:54:47.276Z,47.80
2018-02-08T17:57:14.725Z,48.07
2018-02-08T17:59:42.139Z,50.57
2018-02-08T18:02:09.588Z,48.57
2018-02-08T18:04:37.044Z,50.30
2018-02-08T18:07:04.455Z,51.30
2018-02-08T18:09:31.894Z,50.13
2018-02-08T18:11:59.331Z,48.33
2018-02-08T18:14:26.775Z,53.40
2018-02-08T18:16:54.212Z,52.77
2018-02-08T18:19:21.635Z,53.37
2018-02-08T18:21:49.832Z,52.23
2018-02-08T18:24:17.263Z,54.13
2018-02-08T18:26:44.693Z,51.33
2018-02-08T18:29:12.180Z,53.67
2018-02-08T18:31:39.630Z,53.37
2018-02-08T18:34:07.061Z,53.63
2018-02-08T18:36:34.517Z,53.87
2018-02-08T18:39:01.947Z,51.27
2018-02-08T18:41:29.363Z,53.47
2018-02-08T18:43:56.823Z,53.77
2018-02-08T18:46:24.269Z,51.47
2018-02-08T18:48:51.701Z,51.97
2018-02-08T18:51:19.143Z,50.47
2018-02-08T18:53:46.563Z,51.27
2018-02-08T18:56:13.997Z,51.87
2018-02-08T18:58:41.445Z,53.27
2018-02-08T19:01:08.884Z,51.87
2018-02-08T19:03:36.315Z,50.73
2018-02-08T19:06:03.750Z,50.50
2018-02-08T19:08:31.955Z,52.10
2018-02-08T19:10:59.380Z,51.07
2018-02-08T19:13:26.811Z,52.10
2018-02-08T19:15:54.272Z,50.80
2018-02-08T19:18:21.712Z,52.33
2018-02-08T19:20:49.132Z,52.40
2018-02-08T19:23:16.556Z,51.23
2018-02-08T19:25:44.756Z,51.53
2018-02-08T19:28:12.174Z,50.40
2018-02-08T19:30:39.600Z,50.43
2018-02-08T19:33:07.812Z,51.07
2018-02-08T19:35:35.248Z,51.90
2018-02-08T19:38:02.677Z,50.17
2018-02-08T19:40:30.107Z,52.50
2018-02-08T19:42:57.540Z,52.60
2018-02-08T19:45:24.971Z,53.50
2018-02-08T19:47:52.425Z,52.97
2018-02-08T19:50:20.400Z,51.63
2018-02-08T19:52:47.839Z,52.00
2018-02-08T19:55:15.280Z,52.40
2018-02-08T19:57:42.700Z,51.43
2018-02-08T20:00:10.115Z,52.27
2018-02-08T20:02:38.319Z,52.10
2018-02-08T20:05:05.740Z,55.90
2018-02-08T20:07:33.212Z,54.03
2018-02-08T20:10:00.662Z,51.83
2018-02-08T20:12:28.103Z,55.10
2018-02-08T20:14:58.299Z,53.30
2018-02-08T20:17:25.727Z,56.27
2018-02-08T20:19:53.210Z,56.40
2018-02-08T20:22:20.938Z,53.87
2018-02-08T20:24:48.360Z,51.20
2018-02-08T20:27:15.799Z,52.97
2018-02-08T20:29:43.239Z,54.07
2018-02-08T20:32:10.683Z,54.20
2018-02-08T20:34:38.108Z,55.07
2018-02-08T20:37:05.542Z,56.43
2018-02-08T20:39:32.992Z,54.50
2018-02-08T20:42:00.432Z,54.07
2018-02-08T20:44:27.868Z,55.77
2018-02-08T20:46:55.307Z,55.40
2018-02-08T20:49:22.752Z,54.87
2018-02-08T20:51:50.960Z,53.23
2018-02-08T20:54:18.386Z,54.53
2018-02-08T20:56:45.800Z,53.70
2018-02-08T20:59:13.231Z,55.37
2018-02-08T21:01:41.428Z,53.07
2018-02-08T21:04:08.885Z,56.37
2018-02-08T21:06:36.339Z,54.30
2018-02-08T21:09:03.789Z,53.40
2018-02-08T21:11:31.230Z,55.00
2018-02-08T21:13:58.748Z,55.37
2018-02-08T21:16:26.176Z,56.83
2018-02-08T21:18:53.628Z,54.63
2018-02-08T21:21:21.060Z,58.30
2018-02-08T21:23:48.483Z,54.73
2018-02-08T21:26:15.928Z,54.73
2018-02-08T21:28:43.371Z,56.40
2018-02-08T21:31:10.828Z,55.23
2018-02-08T21:33:38.264Z,54.00
2018-02-08T21:36:05.692Z,53.40
2018-02-08T21:38:33.130Z,55.00
2018-02-08T21:41:00.559Z,52.73
2018-02-08T21:43:27.979Z,53.47
2018-02-08T21:45:56.219Z,54.60
2018-02-08T21:48:23.615Z,53.77
2018-02-08T21:50:51.051Z,53.37
2018-02-08T21:53:18.519Z,52.53
2018-02-08T21:55:45.952Z,52.40
2018-02-08T21:58:13.371Z,53.97
2018-02-08T22:00:40.792Z,54.70
2018-02-08T22:03:08.984Z,56.27
2018-02-08T22:05:36.439Z,55.20
2018-02-08T22:08:03.856Z,56.00
2018-02-08T22:10:31.295Z,54.73
2018-02-08T22:12:59.147Z,54.63
2018-02-08T22:15:26.590Z,54.47
2018-02-08T22:17:54.768Z,55.17
2018-02-08T22:20:22.217Z,54.23
2018-02-08T22:22:49.635Z,54.27
2018-02-08T22:25:17.072Z,56.57
2018-02-08T22:27:44.503Z,54.20
2018-02-08T22:30:12.723Z,56.13
2018-02-08T22:32:40.144Z,54.90
2018-02-08T22:35:07.576Z,55.13
2018-02-08T22:37:35.004Z,55.13
2018-02-08T22:40:02.448Z,58.57
2018-02-08T22:42:29.912Z,59.40
2018-02-08T22:44:57.332Z,55.40
2018-02-08T22:47:24.779Z,58.50
2018-02-08T22:49:52.230Z,57.63
2018-02-08T22:52:19.660Z,61.60
2018-02-08T22:54:47.112Z,58.10
2018-02-08T22:57:14.560Z,56.63
2018-02-08T22:59:42.005Z,59.37
2018-02-08T23:02:09.468Z,61.37
2018-02-08T23:04:36.910Z,59.50
2018-02-08T23:07:04.339Z,59.83
2018-02-08T23:09:31.772Z,60.60
2018-02-08T23:11:59.211Z,59.23
2018-02-08T23:14:26.668Z,55.53
2018-02-08T23:16:54.096Z,56.37
2018-02-08T23:19:21.539Z,59.53
2018-02-08T23:21:48.983Z,56.57
2018-02-08T23:24:16.411Z,59.23
2018-02-08T23:26:43.839Z,57.77
2018-02-08T23:29:11.267Z,57.93
2018-02-08T23:31:38.723Z,57.20
2018-02-08T23:34:06.187Z,57.93
2018-02-08T23:36:33.637Z,55.70
2018-02-08T23:39:01.076Z,58.37
2018-02-08T23:41:28.509Z,57.40
2018-02-08T23:43:55.934Z,55.73
2018-02-08T23:46:23.381Z,57.70
2018-02-08T23:48:50.819Z,59.90
2018-02-08T23:51:18.272Z,57.47
2018-02-08T23:53:45.687Z,57.30
2018-02-08T23:56:13.115Z,57.30
2018-02-08T23:58:41.316Z,60.33
